sensor_id;sensor_type;location;lat;lon;timestamp;P1;durP1;ratioP1;P2;durP2;ratioP2
16308;SDS011;8263;48.880;9.276;2023-09-19T00:00:30;134.05;;;124.75;;
16308;SDS011;8263;48.880;9.276;2023-09-19T00:02:58;133.88;;;124.57;;
16308;SDS011;8263;48.880;9.276;2023-09-19T00:05:27;136.32;;;126.80;;
16308;SDS011;8263;48.880;9.276;2023-09-19T00:07:54;139.00;;;129.20;;
16308;SDS011;8263;48.880;9.276;2023-09-19T00:10:23;134.63;;;125.25;;
16308;SDS011;8263;48.880;9.276;2023-09-19T00:12:50;136.10;;;126.50;;
16308;SDS011;8263;48.880;9.276;2023-09-19T00:15:17;135.40;;;126.00;;
16308;SDS011;8263;48.880;9.276;2023-09-19T00:17:45;136.05;;;126.47;;
16308;SDS011;8263;48.880;9.276;2023-09-19T00:20:13;136.90;;;127.32;;
16308;SDS011;8263;48.880;9.276;2023-09-19T00:22:44;133.52;;;124.25;;
16308;SDS011;8263;48.880;9.276;2023-09-19T00:25:10;137.85;;;128.23;;
16308;SDS011;8263;48.880;9.276;2023-09-19T00:27:40;135.70;;;126.22;;
16308;SDS011;8263;48.880;9.276;2023-09-19T00:30:09;135.77;;;126.30;;
16308;SDS011;8263;48.880;9.276;2023-09-19T00:32:41;138.13;;;128.45;;
16308;SDS011;8263;48.880;9.276;2023-09-19T00:35:07;136.32;;;126.82;;
16308;SDS011;8263;48.880;9.276;2023-09-19T00:37:35;137.65;;;128.02;;
16308;SDS011;8263;48.880;9.276;2023-09-19T00:40:03;135.85;;;126.35;;
16308;SDS011;8263;48.880;9.276;2023-09-19T00:42:30;136.75;;;127.15;;
16308;SDS011;8263;48.880;9.276;2023-09-19T00:44:58;134.65;;;125.30;;
16308;SDS011;8263;48.880;9.276;2023-09-19T00:47:28;136.40;;;126.90;;
16308;SDS011;8263;48.880;9.276;2023-09-19T00:49:56;136.07;;;126.57;;
16308;SDS011;8263;48.880;9.276;2023-09-19T00:52:23;136.45;;;126.93;;
16308;SDS011;8263;48.880;9.276;2023-09-19T00:54:49;135.40;;;125.97;;
16308;SDS011;8263;48.880;9.276;2023-09-19T00:57:19;137.73;;;128.05;;
16308;SDS011;8263;48.880;9.276;2023-09-19T00:59:47;136.60;;;127.03;;
16308;SDS011;8263;48.880;9.276;2023-09-19T01:02:14;135.27;;;125.85;;
16308;SDS011;8263;48.880;9.276;2023-09-19T01:04:41;135.85;;;126.35;;
16308;SDS011;8263;48.880;9.276;2023-09-19T01:07:08;134.77;;;125.40;;
16308;SDS011;8263;48.880;9.276;2023-09-19T01:09:35;134.32;;;124.97;;
16308;SDS011;8263;48.880;9.276;2023-09-19T01:12:04;134.77;;;125.38;;
16308;SDS011;8263;48.880;9.276;2023-09-19T01:14:37;137.57;;;127.95;;
16308;SDS011;8263;48.880;9.276;2023-09-19T01:17:05;134.52;;;125.18;;
16308;SDS011;8263;48.880;9.276;2023-09-19T01:19:45;136.63;;;127.05;;
16308;SDS011;8263;48.880;9.276;2023-09-19T01:22:21;134.85;;;125.45;;
16308;SDS011;8263;48.880;9.276;2023-09-19T01:25:09;136.30;;;126.78;;
16308;SDS011;8263;48.880;9.276;2023-09-19T01:27:53;135.52;;;126.07;;
16308;SDS011;8263;48.880;9.276;2023-09-19T01:30:26;136.80;;;127.22;;
16308;SDS011;8263;48.880;9.276;2023-09-19T01:32:54;135.38;;;125.97;;
16308;SDS011;8263;48.880;9.276;2023-09-19T01:35:20;136.23;;;126.68;;
16308;SDS011;8263;48.880;9.276;2023-09-19T01:37:46;136.55;;;127.03;;
16308;SDS011;8263;48.880;9.276;2023-09-19T01:40:14;136.30;;;126.80;;
16308;SDS011;8263;48.880;9.276;2023-09-19T01:42:44;136.15;;;126.65;;
16308;SDS011;8263;48.880;9.276;2023-09-19T01:45:12;135.50;;;126.05;;
16308;SDS011;8263;48.880;9.276;2023-09-19T01:47:44;137.68;;;128.05;;
16308;SDS011;8263;48.880;9.276;2023-09-19T01:50:13;139.27;;;129.40;;
16308;SDS011;8263;48.880;9.276;2023-09-19T01:52:46;138.93;;;129.15;;
16308;SDS011;8263;48.880;9.276;2023-09-19T01:55:13;137.30;;;127.70;;
16308;SDS011;8263;48.880;9.276;2023-09-19T01:57:43;137.35;;;127.72;;
16308;SDS011;8263;48.880;9.276;2023-09-19T02:00:12;137.13;;;127.53;;
16308;SDS011;8263;48.880;9.276;2023-09-19T02:02:39;134.60;;;125.25;;
16308;SDS011;8263;48.880;9.276;2023-09-19T02:05:08;135.40;;;125.90;;
16308;SDS011;8263;48.880;9.276;2023-09-19T02:07:34;136.15;;;126.60;;
16308;SDS011;8263;48.880;9.276;2023-09-19T02:10:04;136.93;;;127.30;;
16308;SDS011;8263;48.880;9.276;2023-09-19T02:12:30;137.38;;;127.75;;
16308;SDS011;8263;48.880;9.276;2023-09-19T02:14:57;134.73;;;125.25;;
16308;SDS011;8263;48.880;9.276;2023-09-19T02:17:24;138.07;;;128.38;;
16308;SDS011;8263;48.880;9.276;2023-09-19T02:19:51;136.68;;;127.13;;
16308;SDS011;8263;48.880;9.276;2023-09-19T02:22:19;137.40;;;127.80;;
16308;SDS011;8263;48.880;9.276;2023-09-19T02:24:45;132.93;;;123.72;;
16308;SDS011;8263;48.880;9.276;2023-09-19T02:27:13;136.00;;;126.50;;
16308;SDS011;8263;48.880;9.276;2023-09-19T02:29:41;132.93;;;123.72;;
16308;SDS011;8263;48.880;9.276;2023-09-19T02:32:07;136.82;;;127.22;;
16308;SDS011;8263;48.880;9.276;2023-09-19T02:34:35;136.07;;;126.57;;
16308;SDS011;8263;48.880;9.276;2023-09-19T02:37:04;134.27;;;124.88;;
16308;SDS011;8263;48.880;9.276;2023-09-19T02:39:32;136.73;;;127.13;;
16308;SDS011;8263;48.880;9.276;2023-09-19T02:41:59;137.52;;;127.88;;
16308;SDS011;8263;48.880;9.276;2023-09-19T02:44:26;136.95;;;127.35;;
16308;SDS011;8263;48.880;9.276;2023-09-19T02:46:52;136.23;;;126.70;;
16308;SDS011;8263;48.880;9.276;2023-09-19T02:49:19;138.50;;;128.80;;
16308;SDS011;8263;48.880;9.276;2023-09-19T02:51:46;137.45;;;127.80;;
16308;SDS011;8263;48.880;9.276;2023-09-19T02:54:13;137.45;;;127.82;;
16308;SDS011;8263;48.880;9.276;2023-09-19T02:56:42;134.57;;;125.20;;
16308;SDS011;8263;48.880;9.276;2023-09-19T02:59:08;138.25;;;128.55;;
16308;SDS011;8263;48.880;9.276;2023-09-19T03:01:36;135.55;;;126.05;;
16308;SDS011;8263;48.880;9.276;2023-09-19T03:04:03;137.68;;;128.02;;
16308;SDS011;8263;48.880;9.276;2023-09-19T03:06:33;138.25;;;128.43;;
16308;SDS011;8263;48.880;9.276;2023-09-19T03:09:00;137.02;;;127.43;;
16308;SDS011;8263;48.880;9.276;2023-09-19T03:11:29;135.48;;;126.03;;
16308;SDS011;8263;48.880;9.276;2023-09-19T03:13:58;138.27;;;128.57;;
16308;SDS011;8263;48.880;9.276;2023-09-19T03:16:24;136.90;;;127.30;;
16308;SDS011;8263;48.880;9.276;2023-09-19T03:18:51;138.70;;;128.95;;
16308;SDS011;8263;48.880;9.276;2023-09-19T03:21:17;137.00;;;127.40;;
16308;SDS011;8263;48.880;9.276;2023-09-19T03:23:44;137.63;;;127.95;;
16308;SDS011;8263;48.880;9.276;2023-09-19T03:26:11;136.90;;;127.30;;
16308;SDS011;8263;48.880;9.276;2023-09-19T03:28:38;138.80;;;129.02;;
16308;SDS011;8263;48.880;9.276;2023-09-19T03:31:06;139.02;;;129.25;;
16308;SDS011;8263;48.880;9.276;2023-09-19T03:33:32;137.20;;;127.57;;
16308;SDS011;8263;48.880;9.276;2023-09-19T03:35:59;137.30;;;127.63;;
16308;SDS011;8263;48.880;9.276;2023-09-19T03:38:29;137.02;;;127.40;;
16308;SDS011;8263;48.880;9.276;2023-09-19T03:40:56;138.18;;;128.45;;
16308;SDS011;8263;48.880;9.276;2023-09-19T03:43:23;137.55;;;127.88;;
16308;SDS011;8263;48.880;9.276;2023-09-19T03:45:49;137.50;;;127.82;;
16308;SDS011;8263;48.880;9.276;2023-09-19T03:48:19;138.23;;;128.52;;
16308;SDS011;8263;48.880;9.276;2023-09-19T03:50:46;135.52;;;126.07;;
16308;SDS011;8263;48.880;9.276;2023-09-19T03:53:13;136.55;;;126.95;;
16308;SDS011;8263;48.880;9.276;2023-09-19T03:55:39;139.40;;;129.60;;
16308;SDS011;8263;48.880;9.276;2023-09-19T03:58:06;136.15;;;126.60;;
16308;SDS011;8263;48.880;9.276;2023-09-19T04:00:32;137.20;;;127.55;;
16308;SDS011;8263;48.880;9.276;2023-09-19T04:02:59;138.20;;;128.50;;
16308;SDS011;8263;48.880;9.276;2023-09-19T04:05:32;137.18;;;127.57;;
16308;SDS011;8263;48.880;9.276;2023-09-19T04:07:59;137.50;;;127.88;;
16308;SDS011;8263;48.880;9.276;2023-09-19T04:10:25;136.95;;;127.32;;
16308;SDS011;8263;48.880;9.276;2023-09-19T04:12:52;138.73;;;128.82;;
16308;SDS011;8263;48.880;9.276;2023-09-19T04:15:19;138.32;;;128.55;;
16308;SDS011;8263;48.880;9.276;2023-09-19T04:17:47;136.40;;;126.85;;
16308;SDS011;8263;48.880;9.276;2023-09-19T04:20:12;137.38;;;127.72;;
16308;SDS011;8263;48.880;9.276;2023-09-19T04:22:40;135.43;;;125.95;;
16308;SDS011;8263;48.880;9.276;2023-09-19T04:25:07;137.13;;;127.53;;
16308;SDS011;8263;48.880;9.276;2023-09-19T04:27:34;135.45;;;125.95;;
16308;SDS011;8263;48.880;9.276;2023-09-19T04:30:00;139.13;;;128.80;;
16308;SDS011;8263;48.880;9.276;2023-09-19T04:32:34;138.07;;;128.38;;
16308;SDS011;8263;48.880;9.276;2023-09-19T04:35:03;140.60;;;130.63;;
16308;SDS011;8263;48.880;9.276;2023-09-19T04:37:31;136.90;;;127.25;;
16308;SDS011;8263;48.880;9.276;2023-09-19T04:39:59;137.50;;;127.80;;
16308;SDS011;8263;48.880;9.276;2023-09-19T04:42:26;137.25;;;127.60;;
16308;SDS011;8263;48.880;9.276;2023-09-19T04:44:52;136.38;;;126.80;;
16308;SDS011;8263;48.880;9.276;2023-09-19T04:47:19;137.32;;;127.72;;
16308;SDS011;8263;48.880;9.276;2023-09-19T04:49:46;137.45;;;127.80;;
16308;SDS011;8263;48.880;9.276;2023-09-19T04:52:12;138.50;;;128.68;;
16308;SDS011;8263;48.880;9.276;2023-09-19T04:54:40;139.00;;;129.20;;
16308;SDS011;8263;48.880;9.276;2023-09-19T04:57:08;137.48;;;127.82;;
16308;SDS011;8263;48.880;9.276;2023-09-19T04:59:35;138.15;;;128.43;;
16308;SDS011;8263;48.880;9.276;2023-09-19T05:02:01;138.60;;;128.82;;
16308;SDS011;8263;48.880;9.276;2023-09-19T05:04:28;138.75;;;128.98;;
16308;SDS011;8263;48.880;9.276;2023-09-19T05:06:55;140.18;;;130.27;;
16308;SDS011;8263;48.880;9.276;2023-09-19T05:09:21;140.15;;;130.25;;
16308;SDS011;8263;48.880;9.276;2023-09-19T05:11:49;138.95;;;129.15;;
16308;SDS011;8263;48.880;9.276;2023-09-19T05:14:17;139.48;;;129.52;;
16308;SDS011;8263;48.880;9.276;2023-09-19T05:16:45;137.13;;;127.50;;
16308;SDS011;8263;48.880;9.276;2023-09-19T05:19:11;139.27;;;129.48;;
16308;SDS011;8263;48.880;9.276;2023-09-19T05:21:38;136.75;;;127.07;;
16308;SDS011;8263;48.880;9.276;2023-09-19T05:24:05;137.15;;;127.47;;
16308;SDS011;8263;48.880;9.276;2023-09-19T05:26:32;140.43;;;130.48;;
16308;SDS011;8263;48.880;9.276;2023-09-19T05:28:59;138.55;;;128.77;;
16308;SDS011;8263;48.880;9.276;2023-09-19T05:31:27;136.68;;;127.05;;
16308;SDS011;8263;48.880;9.276;2023-09-19T05:33:54;137.80;;;128.10;;
16308;SDS011;8263;48.880;9.276;2023-09-19T05:36:21;140.52;;;130.65;;
16308;SDS011;8263;48.880;9.276;2023-09-19T05:38:48;135.43;;;125.90;;
16308;SDS011;8263;48.880;9.276;2023-09-19T05:41:18;136.73;;;127.13;;
16308;SDS011;8263;48.880;9.276;2023-09-19T05:43:46;137.27;;;127.63;;
16308;SDS011;8263;48.880;9.276;2023-09-19T05:46:15;136.98;;;127.35;;
16308;SDS011;8263;48.880;9.276;2023-09-19T05:48:43;138.65;;;128.88;;
16308;SDS011;8263;48.880;9.276;2023-09-19T05:51:12;139.98;;;130.00;;
16308;SDS011;8263;48.880;9.276;2023-09-19T05:53:39;137.85;;;128.10;;
16308;SDS011;8263;48.880;9.276;2023-09-19T05:56:08;137.82;;;128.13;;
16308;SDS011;8263;48.880;9.276;2023-09-19T05:58:36;135.93;;;126.43;;
16308;SDS011;8263;48.880;9.276;2023-09-19T06:01:04;139.57;;;129.73;;
16308;SDS011;8263;48.880;9.276;2023-09-19T06:03:32;137.95;;;128.25;;
16308;SDS011;8263;48.880;9.276;2023-09-19T06:06:00;138.23;;;128.52;;
16308;SDS011;8263;48.880;9.276;2023-09-19T06:08:28;138.25;;;128.52;;
16308;SDS011;8263;48.880;9.276;2023-09-19T06:10:56;138.18;;;128.48;;
16308;SDS011;8263;48.880;9.276;2023-09-19T06:13:22;140.90;;;130.85;;
16308;SDS011;8263;48.880;9.276;2023-09-19T06:15:51;139.80;;;129.90;;
16308;SDS011;8263;48.880;9.276;2023-09-19T06:18:19;137.80;;;128.10;;
16308;SDS011;8263;48.880;9.276;2023-09-19T06:20:46;136.95;;;127.35;;
16308;SDS011;8263;48.880;9.276;2023-09-19T06:23:14;138.43;;;128.70;;
16308;SDS011;8263;48.880;9.276;2023-09-19T06:25:40;136.90;;;127.30;;
16308;SDS011;8263;48.880;9.276;2023-09-19T06:28:08;139.30;;;129.45;;
16308;SDS011;8263;48.880;9.276;2023-09-19T06:30:37;138.82;;;129.02;;
16308;SDS011;8263;48.880;9.276;2023-09-19T06:33:05;138.57;;;128.80;;
16308;SDS011;8263;48.880;9.276;2023-09-19T06:35:32;138.18;;;128.38;;
16308;SDS011;8263;48.880;9.276;2023-09-19T06:37:59;140.25;;;130.25;;
16308;SDS011;8263;48.880;9.276;2023-09-19T06:40:29;138.07;;;128.38;;
16308;SDS011;8263;48.880;9.276;2023-09-19T06:42:56;138.48;;;128.73;;
16308;SDS011;8263;48.880;9.276;2023-09-19T06:45:23;139.00;;;129.13;;
16308;SDS011;8263;48.880;9.276;2023-09-19T06:47:51;136.63;;;126.97;;
16308;SDS011;8263;48.880;9.276;2023-09-19T06:50:19;136.75;;;126.90;;
16308;SDS011;8263;48.880;9.276;2023-09-19T06:52:47;137.55;;;127.88;;
16308;SDS011;8263;48.880;9.276;2023-09-19T06:55:15;138.43;;;128.65;;
16308;SDS011;8263;48.880;9.276;2023-09-19T06:57:44;138.85;;;128.95;;
16308;SDS011;8263;48.880;9.276;2023-09-19T07:00:10;140.13;;;130.20;;
16308;SDS011;8263;48.880;9.276;2023-09-19T07:02:43;137.05;;;127.43;;
16308;SDS011;8263;48.880;9.276;2023-09-19T07:05:09;134.63;;;125.15;;
16308;SDS011;8263;48.880;9.276;2023-09-19T07:07:36;139.75;;;129.85;;
16308;SDS011;8263;48.880;9.276;2023-09-19T07:10:03;138.23;;;128.48;;
16308;SDS011;8263;48.880;9.276;2023-09-19T07:12:30;138.23;;;128.45;;
16308;SDS011;8263;48.880;9.276;2023-09-19T07:14:59;140.13;;;130.23;;
16308;SDS011;8263;48.880;9.276;2023-09-19T07:17:26;140.88;;;130.88;;
16308;SDS011;8263;48.880;9.276;2023-09-19T07:19:52;141.27;;;131.23;;
16308;SDS011;8263;48.880;9.276;2023-09-19T07:22:19;138.10;;;128.32;;
16308;SDS011;8263;48.880;9.276;2023-09-19T07:24:45;137.00;;;127.40;;
16308;SDS011;8263;48.880;9.276;2023-09-19T07:27:14;140.27;;;130.27;;
16308;SDS011;8263;48.880;9.276;2023-09-19T07:29:41;137.52;;;127.82;;
16308;SDS011;8263;48.880;9.276;2023-09-19T07:32:11;139.50;;;129.40;;
16308;SDS011;8263;48.880;9.276;2023-09-19T07:34:39;139.45;;;129.55;;
16308;SDS011;8263;48.880;9.276;2023-09-19T07:37:05;139.13;;;129.30;;
16308;SDS011;8263;48.880;9.276;2023-09-19T07:39:33;135.73;;;126.20;;
16308;SDS011;8263;48.880;9.276;2023-09-19T07:41:59;136.52;;;126.93;;
16308;SDS011;8263;48.880;9.276;2023-09-19T07:44:26;136.15;;;126.55;;
16308;SDS011;8263;48.880;9.276;2023-09-19T07:46:53;139.50;;;129.50;;
16308;SDS011;8263;48.880;9.276;2023-09-19T07:49:21;140.20;;;130.10;;
16308;SDS011;8263;48.880;9.276;2023-09-19T07:51:47;136.60;;;127.00;;
16308;SDS011;8263;48.880;9.276;2023-09-19T07:54:14;139.75;;;129.57;;
16308;SDS011;8263;48.880;9.276;2023-09-19T07:56:42;138.52;;;128.75;;
16308;SDS011;8263;48.880;9.276;2023-09-19T07:59:08;140.50;;;130.55;;
16308;SDS011;8263;48.880;9.276;2023-09-19T08:01:36;137.55;;;127.88;;
16308;SDS011;8263;48.880;9.276;2023-09-19T08:04:04;136.05;;;126.53;;
16308;SDS011;8263;48.880;9.276;2023-09-19T08:06:33;135.73;;;126.22;;
16308;SDS011;8263;48.880;9.276;2023-09-19T08:08:59;137.60;;;127.75;;
16308;SDS011;8263;48.880;9.276;2023-09-19T08:11:32;139.88;;;129.98;;
16308;SDS011;8263;48.880;9.276;2023-09-19T08:13:58;138.75;;;128.82;;
16308;SDS011;8263;48.880;9.276;2023-09-19T08:16:25;136.93;;;127.25;;
16308;SDS011;8263;48.880;9.276;2023-09-19T08:18:51;138.40;;;128.60;;
16308;SDS011;8263;48.880;9.276;2023-09-19T08:21:20;139.02;;;129.20;;
16308;SDS011;8263;48.880;9.276;2023-09-19T08:23:48;137.68;;;127.97;;
16308;SDS011;8263;48.880;9.276;2023-09-19T08:26:14;137.38;;;127.65;;
16308;SDS011;8263;48.880;9.276;2023-09-19T08:28:42;138.75;;;128.95;;
16308;SDS011;8263;48.880;9.276;2023-09-19T08:31:08;136.82;;;127.15;;
16308;SDS011;8263;48.880;9.276;2023-09-19T08:33:35;138.32;;;128.55;;
16308;SDS011;8263;48.880;9.276;2023-09-19T08:36:02;136.70;;;127.10;;
16308;SDS011;8263;48.880;9.276;2023-09-19T08:38:30;138.52;;;128.73;;
16308;SDS011;8263;48.880;9.276;2023-09-19T08:40:59;137.30;;;127.57;;
16308;SDS011;8263;48.880;9.276;2023-09-19T08:43:26;137.30;;;127.65;;
16308;SDS011;8263;48.880;9.276;2023-09-19T08:45:54;136.70;;;127.07;;
16308;SDS011;8263;48.880;9.276;2023-09-19T08:48:25;136.23;;;126.68;;
16308;SDS011;8263;48.880;9.276;2023-09-19T08:50:56;137.57;;;127.90;;
16308;SDS011;8263;48.880;9.276;2023-09-19T08:53:26;137.32;;;127.70;;
16308;SDS011;8263;48.880;9.276;2023-09-19T08:55:54;135.10;;;125.68;;
16308;SDS011;8263;48.880;9.276;2023-09-19T08:58:23;134.35;;;124.93;;
16308;SDS011;8263;48.880;9.276;2023-09-19T09:00:53;137.98;;;128.27;;
16308;SDS011;8263;48.880;9.276;2023-09-19T09:03:21;137.20;;;127.55;;
16308;SDS011;8263;48.880;9.276;2023-09-19T09:05:49;136.82;;;126.90;;
16308;SDS011;8263;48.880;9.276;2023-09-19T09:08:17;135.38;;;125.93;;
16308;SDS011;8263;48.880;9.276;2023-09-19T09:10:45;136.45;;;126.82;;
16308;SDS011;8263;48.880;9.276;2023-09-19T09:13:11;138.00;;;128.30;;
16308;SDS011;8263;48.880;9.276;2023-09-19T09:15:40;133.70;;;124.40;;
16308;SDS011;8263;48.880;9.276;2023-09-19T09:18:10;134.82;;;125.43;;
16308;SDS011;8263;48.880;9.276;2023-09-19T09:20:36;134.32;;;125.00;;
16308;SDS011;8263;48.880;9.276;2023-09-19T09:23:04;137.32;;;127.68;;
16308;SDS011;8263;48.880;9.276;2023-09-19T09:28:12;136.57;;;127.05;;
16308;SDS011;8263;48.880;9.276;2023-09-19T09:30:46;136.25;;;126.75;;
16308;SDS011;8263;48.880;9.276;2023-09-19T09:33:14;135.80;;;126.30;;
16308;SDS011;8263;48.880;9.276;2023-09-19T09:35:48;135.00;;;125.60;;
16308;SDS011;8263;48.880;9.276;2023-09-19T09:38:17;136.75;;;127.20;;
16308;SDS011;8263;48.880;9.276;2023-09-19T09:40:47;132.00;;;122.85;;
16308;SDS011;8263;48.880;9.276;2023-09-19T09:43:27;134.63;;;125.28;;
16308;SDS011;8263;48.880;9.276;2023-09-19T09:46:12;136.68;;;127.07;;
16308;SDS011;8263;48.880;9.276;2023-09-19T09:48:56;135.98;;;126.50;;
16308;SDS011;8263;48.880;9.276;2023-09-19T09:51:50;137.07;;;127.47;;
16308;SDS011;8263;48.880;9.276;2023-09-19T09:54:24;135.98;;;126.50;;
16308;SDS011;8263;48.880;9.276;2023-09-19T09:56:53;135.85;;;126.32;;
16308;SDS011;8263;48.880;9.276;2023-09-19T09:59:24;131.50;;;122.45;;
16308;SDS011;8263;48.880;9.276;2023-09-19T10:02:11;132.25;;;123.15;;
16308;SDS011;8263;48.880;9.276;2023-09-19T10:04:38;134.73;;;125.38;;
16308;SDS011;8263;48.880;9.276;2023-09-19T10:07:25;133.63;;;124.35;;
16308;SDS011;8263;48.880;9.276;2023-09-19T10:09:52;135.80;;;126.38;;
16308;SDS011;8263;48.880;9.276;2023-09-19T10:12:24;133.73;;;124.47;;
16308;SDS011;8263;48.880;9.276;2023-09-19T10:14:52;132.93;;;123.75;;
16308;SDS011;8263;48.880;9.276;2023-09-19T10:17:23;133.93;;;124.65;;
16308;SDS011;8263;48.880;9.276;2023-09-19T10:19:53;136.77;;;126.78;;
16308;SDS011;8263;48.880;9.276;2023-09-19T10:22:22;131.52;;;122.47;;
16308;SDS011;8263;48.880;9.276;2023-09-19T10:24:53;131.75;;;122.65;;
16308;SDS011;8263;48.880;9.276;2023-09-19T10:27:20;134.57;;;125.22;;
16308;SDS011;8263;48.880;9.276;2023-09-19T10:29:48;132.32;;;123.18;;
16308;SDS011;8263;48.880;9.276;2023-09-19T10:32:16;135.35;;;125.93;;
16308;SDS011;8263;48.880;9.276;2023-09-19T10:34:44;135.00;;;125.68;;
16308;SDS011;8263;48.880;9.276;2023-09-19T10:37:13;133.23;;;124.03;;
16308;SDS011;8263;48.880;9.276;2023-09-19T10:39:40;132.15;;;122.90;;
16308;SDS011;8263;48.880;9.276;2023-09-19T10:42:08;133.95;;;124.68;;
16308;SDS011;8263;48.880;9.276;2023-09-19T10:44:37;132.23;;;123.10;;
16308;SDS011;8263;48.880;9.276;2023-09-19T10:47:07;133.65;;;124.35;;
16308;SDS011;8263;48.880;9.276;2023-09-19T10:49:35;133.60;;;124.40;;
16308;SDS011;8263;48.880;9.276;2023-09-19T10:52:01;132.60;;;123.47;;
16308;SDS011;8263;48.880;9.276;2023-09-19T10:54:30;131.95;;;122.85;;
16308;SDS011;8263;48.880;9.276;2023-09-19T10:56:57;132.88;;;123.70;;
16308;SDS011;8263;48.880;9.276;2023-09-19T10:59:26;131.35;;;122.25;;
16308;SDS011;8263;48.880;9.276;2023-09-19T11:01:59;131.88;;;122.82;;
16308;SDS011;8263;48.880;9.276;2023-09-19T11:04:29;130.70;;;121.72;;
16308;SDS011;8263;48.880;9.276;2023-09-19T11:07:01;131.35;;;122.30;;
16308;SDS011;8263;48.880;9.276;2023-09-19T11:09:42;131.25;;;122.25;;
16308;SDS011;8263;48.880;9.276;2023-09-19T11:12:11;130.13;;;121.22;;
16308;SDS011;8263;48.880;9.276;2023-09-19T11:14:40;128.77;;;120.03;;
16308;SDS011;8263;48.880;9.276;2023-09-19T11:25:48;132.65;;;123.53;;
16308;SDS011;8263;48.880;9.276;2023-09-19T11:31:00;126.82;;;118.22;;
16308;SDS011;8263;48.880;9.276;2023-09-19T11:33:46;128.55;;;119.78;;
16308;SDS011;8263;48.880;9.276;2023-09-19T11:36:15;128.80;;;120.05;;
16308;SDS011;8263;48.880;9.276;2023-09-19T11:41:40;130.88;;;121.95;;
16308;SDS011;8263;48.880;9.276;2023-09-19T11:46:54;133.27;;;123.82;;
16308;SDS011;8263;48.880;9.276;2023-09-19T11:49:25;129.65;;;120.82;;
16308;SDS011;8263;48.880;9.276;2023-09-19T11:51:55;129.40;;;120.57;;
16308;SDS011;8263;48.880;9.276;2023-09-19T11:54:22;130.13;;;121.00;;
16308;SDS011;8263;48.880;9.276;2023-09-19T11:56:50;130.80;;;121.85;;
16308;SDS011;8263;48.880;9.276;2023-09-19T11:59:19;128.82;;;120.05;;
16308;SDS011;8263;48.880;9.276;2023-09-19T12:01:50;130.65;;;121.75;;
16308;SDS011;8263;48.880;9.276;2023-09-19T12:04:21;129.18;;;120.38;;
16308;SDS011;8263;48.880;9.276;2023-09-19T12:07:02;127.15;;;118.55;;
16308;SDS011;8263;48.880;9.276;2023-09-19T12:09:29;129.82;;;121.00;;
16308;SDS011;8263;48.880;9.276;2023-09-19T12:11:56;129.68;;;120.85;;
16308;SDS011;8263;48.880;9.276;2023-09-19T12:14:23;129.15;;;120.35;;
16308;SDS011;8263;48.880;9.276;2023-09-19T12:16:51;126.70;;;118.13;;
16308;SDS011;8263;48.880;9.276;2023-09-19T12:19:22;129.35;;;120.57;;
16308;SDS011;8263;48.880;9.276;2023-09-19T12:21:56;128.70;;;119.97;;
16308;SDS011;8263;48.880;9.276;2023-09-19T12:24:24;127.82;;;119.15;;
16308;SDS011;8263;48.880;9.276;2023-09-19T12:26:52;125.47;;;116.97;;
16308;SDS011;8263;48.880;9.276;2023-09-19T12:29:19;128.93;;;120.15;;
16308;SDS011;8263;48.880;9.276;2023-09-19T12:31:49;127.93;;;119.28;;
16308;SDS011;8263;48.880;9.276;2023-09-19T12:34:17;127.90;;;119.22;;
16308;SDS011;8263;48.880;9.276;2023-09-19T12:36:46;127.50;;;118.90;;
16308;SDS011;8263;48.880;9.276;2023-09-19T12:39:22;127.85;;;119.15;;
16308;SDS011;8263;48.880;9.276;2023-09-19T12:41:50;126.22;;;117.65;;
16308;SDS011;8263;48.880;9.276;2023-09-19T12:44:18;127.35;;;118.75;;
16308;SDS011;8263;48.880;9.276;2023-09-19T12:46:45;127.63;;;118.85;;
16308;SDS011;8263;48.880;9.276;2023-09-19T12:49:15;129.13;;;120.30;;
16308;SDS011;8263;48.880;9.276;2023-09-19T12:51:43;124.63;;;116.22;;
16308;SDS011;8263;48.880;9.276;2023-09-19T12:54:11;127.88;;;119.13;;
16308;SDS011;8263;48.880;9.276;2023-09-19T12:56:40;129.32;;;120.53;;
16308;SDS011;8263;48.880;9.276;2023-09-19T12:59:09;128.77;;;120.07;;
16308;SDS011;8263;48.880;9.276;2023-09-19T13:01:38;123.97;;;115.68;;
16308;SDS011;8263;48.880;9.276;2023-09-19T13:04:12;126.78;;;118.22;;
16308;SDS011;8263;48.880;9.276;2023-09-19T13:06:40;124.45;;;116.07;;
16308;SDS011;8263;48.880;9.276;2023-09-19T13:09:09;127.97;;;119.35;;
16308;SDS011;8263;48.880;9.276;2023-09-19T13:11:37;126.10;;;117.55;;
16308;SDS011;8263;48.880;9.276;2023-09-19T13:14:19;125.05;;;116.68;;
16308;SDS011;8263;48.880;9.276;2023-09-19T13:19:36;125.28;;;116.82;;
16308;SDS011;8263;48.880;9.276;2023-09-19T13:22:04;122.97;;;114.75;;
16308;SDS011;8263;48.880;9.276;2023-09-19T13:24:33;128.38;;;119.55;;
16308;SDS011;8263;48.880;9.276;2023-09-19T13:27:06;126.85;;;118.15;;
16308;SDS011;8263;48.880;9.276;2023-09-19T13:29:34;122.78;;;114.57;;
16308;SDS011;8263;48.880;9.276;2023-09-19T13:32:01;125.13;;;116.72;;
16308;SDS011;8263;48.880;9.276;2023-09-19T13:34:29;122.15;;;114.00;;
16308;SDS011;8263;48.880;9.276;2023-09-19T13:36:56;123.43;;;115.13;;
16308;SDS011;8263;48.880;9.276;2023-09-19T13:39:24;120.57;;;112.55;;
16308;SDS011;8263;48.880;9.276;2023-09-19T13:41:51;124.07;;;115.78;;
16308;SDS011;8263;48.880;9.276;2023-09-19T13:44:19;125.43;;;116.97;;
16308;SDS011;8263;48.880;9.276;2023-09-19T13:46:46;123.65;;;115.43;;
16308;SDS011;8263;48.880;9.276;2023-09-19T13:49:12;124.88;;;116.53;;
16308;SDS011;8263;48.880;9.276;2023-09-19T13:51:38;122.65;;;114.45;;
16308;SDS011;8263;48.880;9.276;2023-09-19T13:54:08;124.10;;;115.72;;
16308;SDS011;8263;48.880;9.276;2023-09-19T13:56:36;124.70;;;116.38;;
16308;SDS011;8263;48.880;9.276;2023-09-19T13:59:03;123.60;;;115.35;;
16308;SDS011;8263;48.880;9.276;2023-09-19T14:01:32;125.97;;;117.50;;
16308;SDS011;8263;48.880;9.276;2023-09-19T14:03:58;123.43;;;115.20;;
16308;SDS011;8263;48.880;9.276;2023-09-19T14:06:25;125.28;;;116.82;;
16308;SDS011;8263;48.880;9.276;2023-09-19T14:08:51;123.53;;;115.22;;
16308;SDS011;8263;48.880;9.276;2023-09-19T14:11:18;125.53;;;117.13;;
16308;SDS011;8263;48.880;9.276;2023-09-19T14:13:44;122.82;;;114.57;;
16308;SDS011;8263;48.880;9.276;2023-09-19T14:16:13;124.18;;;115.88;;
16308;SDS011;8263;48.880;9.276;2023-09-19T14:18:42;122.03;;;113.93;;
16308;SDS011;8263;48.880;9.276;2023-09-19T14:21:08;121.20;;;113.18;;
16308;SDS011;8263;48.880;9.276;2023-09-19T14:23:36;122.28;;;114.18;;
16308;SDS011;8263;48.880;9.276;2023-09-19T14:26:02;120.85;;;112.70;;
16308;SDS011;8263;48.880;9.276;2023-09-19T14:28:30;121.40;;;113.32;;
16308;SDS011;8263;48.880;9.276;2023-09-19T14:31:03;122.90;;;114.70;;
16308;SDS011;8263;48.880;9.276;2023-09-19T14:33:29;121.05;;;112.95;;
16308;SDS011;8263;48.880;9.276;2023-09-19T14:35:57;122.28;;;114.18;;
16308;SDS011;8263;48.880;9.276;2023-09-19T14:38:24;123.90;;;115.60;;